createdAt,value
2018-06-16T00:01:25.918Z,93.83
2018-06-16T00:02:25.879Z,93.35
2018-06-16T00:03:25.834Z,93.83
2018-06-16T00:04:25.797Z,93.45
2018-06-16T00:05:25.751Z,93.83
2018-06-16T00:06:25.714Z,93.64
2018-06-16T00:07:25.669Z,93.45
2018-06-16T00:08:25.631Z,93.49
2018-06-16T00:09:25.586Z,93.74
2018-06-16T00:10:25.545Z,93.98
2018-06-16T00:11:25.506Z,93.98
2018-06-16T00:12:25.476Z,94.02
2018-06-16T00:13:25.422Z,93.83
2018-06-16T00:14:25.384Z,93.74
2018-06-16T00:15:25.339Z,94.02
2018-06-16T00:16:25.304Z,93.93
2018-06-16T00:17:25.262Z,93.74
2018-06-16T00:18:25.218Z,93.83
2018-06-16T00:19:25.173Z,93.45
2018-06-16T00:20:25.130Z,93.35
2018-06-16T00:22:25.061Z,93.45
2018-06-16T00:23:25.033Z,94.02
2018-06-16T00:24:24.968Z,93.83
2018-06-16T00:25:24.924Z,93.74
2018-06-16T00:26:24.893Z,93.93
2018-06-16T00:27:24.846Z,94.02
2018-06-16T00:28:24.802Z,94.02
2018-06-16T00:29:24.803Z,93.74
2018-06-16T00:30:24.739Z,93.83
2018-06-16T00:31:24.677Z,93.83
2018-06-16T00:32:24.684Z,93.74
2018-06-16T00:33:24.599Z,93.64
2018-06-16T00:34:24.553Z,93.93
2018-06-16T00:35:24.508Z,93.93
2018-06-16T00:36:24.479Z,93.93
2018-06-16T00:37:24.430Z,94.12
2018-06-16T00:38:24.388Z,94.02
2018-06-16T00:39:24.349Z,94.69
2018-06-16T00:40:24.303Z,94.69
2018-06-16T00:41:24.264Z,94.69
2018-06-16T00:42:24.218Z,94.79
2018-06-16T00:43:24.177Z,94.89
2018-06-16T00:44:24.136Z,94.50
2018-06-16T00:45:24.095Z,94.98
2018-06-16T00:46:24.054Z,94.21
2018-06-16T00:47:24.023Z,94.69
2018-06-16T00:48:23.974Z,95.27
2018-06-16T00:49:23.928Z,94.98
2018-06-16T00:50:23.889Z,94.98
2018-06-16T00:51:23.851Z,94.50
2018-06-16T00:52:23.804Z,94.50
2018-06-16T00:53:23.765Z,94.50
2018-06-16T00:54:23.724Z,94.69
2018-06-16T00:55:23.680Z,94.60
2018-06-16T00:56:23.639Z,94.98
2018-06-16T00:57:23.595Z,95.17
2018-06-16T00:58:23.555Z,95.17
2018-06-16T00:59:23.516Z,95.27
2018-06-16T01:00:23.471Z,94.98
2018-06-16T01:01:23.429Z,95.07
2018-06-16T01:02:23.391Z,95.75
2018-06-16T01:03:23.346Z,95.56
2018-06-16T01:04:23.313Z,95.46
2018-06-16T01:05:23.266Z,95.56
2018-06-16T01:06:23.223Z,95.36
2018-06-16T01:07:23.181Z,95.56
2018-06-16T01:08:23.141Z,95.22
2018-06-16T01:09:23.100Z,95.36
2018-06-16T01:10:23.055Z,95.51
2018-06-16T01:11:23.025Z,95.94
2018-06-16T01:12:22.972Z,96.08
2018-06-16T01:13:22.933Z,95.31
2018-06-16T01:14:22.891Z,95.41
2018-06-16T01:15:22.847Z,95.36
2018-06-16T01:16:22.837Z,95.31
2018-06-16T01:17:22.766Z,95.27
2018-06-16T01:18:22.723Z,95.89
2018-06-16T01:19:22.681Z,95.41
2018-06-16T01:20:22.641Z,95.94
2018-06-16T01:21:22.600Z,96.18
2018-06-16T01:22:22.556Z,95.31
2018-06-16T01:23:22.514Z,95.70
2018-06-16T01:24:22.476Z,95.89
2018-06-16T01:25:22.433Z,95.89
2018-06-16T01:26:22.389Z,95.51
2018-06-16T01:27:22.349Z,96.37
2018-06-16T01:28:22.306Z,96.18
2018-06-16T01:29:22.266Z,96.37
2018-06-16T01:30:22.221Z,96.37
2018-06-16T01:31:22.181Z,96.37
2018-06-16T01:32:22.144Z,96.18
2018-06-16T01:33:22.100Z,96.37
2018-06-16T01:34:22.061Z,96.08
2018-06-16T01:35:22.014Z,95.79
2018-06-16T01:36:21.973Z,95.89
2018-06-16T01:37:21.930Z,96.18
2018-06-16T01:38:21.888Z,96.27
2018-06-16T01:39:21.848Z,96.27
2018-06-16T01:40:21.811Z,95.61
2018-06-16T01:41:21.764Z,95.51
2018-06-16T01:42:21.720Z,96.08
2018-06-16T01:43:21.681Z,96.08
2018-06-16T01:44:21.658Z,96.27
2018-06-16T01:45:21.594Z,96.27
2018-06-16T01:46:21.556Z,96.08
2018-06-16T01:47:21.516Z,96.08
2018-06-16T01:48:21.472Z,95.70
2018-06-16T01:49:21.429Z,95.89
2018-06-16T01:50:21.390Z,95.70
2018-06-16T01:51:21.346Z,95.98
2018-06-16T01:52:21.306Z,95.98
2018-06-16T01:53:21.262Z,95.98
2018-06-16T01:54:21.222Z,96.18
2018-06-16T01:55:21.181Z,95.89
2018-06-16T01:56:21.142Z,95.79
2018-06-16T01:57:21.095Z,95.89
2018-06-16T01:58:21.056Z,95.98
2018-06-16T01:59:21.012Z,95.61
2018-06-16T02:00:20.973Z,95.31
2018-06-16T02:01:20.927Z,95.51
2018-06-16T02:02:20.891Z,95.22
2018-06-16T02:03:20.844Z,95.31
2018-06-16T02:04:20.803Z,96.08
2018-06-16T02:05:20.759Z,95.31
2018-06-16T02:06:20.719Z,95.89
2018-06-16T02:07:20.676Z,95.70
2018-06-16T02:08:20.636Z,95.61
2018-06-16T02:09:20.595Z,95.61
2018-06-16T02:10:20.551Z,95.70
2018-06-16T02:11:20.508Z,95.79
2018-06-16T02:12:20.469Z,95.89
2018-06-16T02:13:20.425Z,96.84
2018-06-16T02:14:20.385Z,96.56
2018-06-16T02:15:20.344Z,96.66
2018-06-16T02:16:20.300Z,97.04
2018-06-16T02:17:20.262Z,97.13
2018-06-16T02:18:20.223Z,97.33
2018-06-16T02:19:20.174Z,97.61
2018-06-16T02:20:20.133Z,97.80
2018-06-16T02:21:20.090Z,97.71
2018-06-16T02:22:20.050Z,97.80
2018-06-16T02:23:20.008Z,97.61
2018-06-16T02:24:19.966Z,98.28
2018-06-16T02:25:19.922Z,98.66
2018-06-16T02:26:19.883Z,98.47
2018-06-16T02:27:19.842Z,98.28
2018-06-16T02:28:19.799Z,98.57
2018-06-16T02:29:19.755Z,98.00
2018-06-16T02:30:19.713Z,98.28
2018-06-16T02:31:19.673Z,98.19
2018-06-16T02:32:19.632Z,98.00
2018-06-16T02:33:19.590Z,98.00
2018-06-16T02:34:19.545Z,98.47
2018-06-16T02:35:19.502Z,98.28
2018-06-16T02:36:19.462Z,97.90
2018-06-16T02:37:19.423Z,98.66
2018-06-16T02:38:19.379Z,98.38
2018-06-16T02:39:19.337Z,98.09
2018-06-16T02:40:19.296Z,98.28
2018-06-16T02:41:19.257Z,97.71
2018-06-16T02:42:19.211Z,97.61
2018-06-16T02:43:19.167Z,97.52
2018-06-16T02:44:19.128Z,98.38
2018-06-16T02:45:19.084Z,97.61
2018-06-16T02:46:19.041Z,97.61
2018-06-16T02:47:19.004Z,97.52
2018-06-16T02:48:18.957Z,98.00
2018-06-16T02:49:18.916Z,97.90
2018-06-16T02:50:18.916Z,97.80
2018-06-16T02:51:18.835Z,97.56
2018-06-16T02:52:18.792Z,97.95
2018-06-16T02:53:18.749Z,98.43
2018-06-16T02:54:18.708Z,98.33
2018-06-16T02:55:18.669Z,98.43
2018-06-16T02:56:18.622Z,98.14
2018-06-16T02:57:18.585Z,98.43
2018-06-16T02:58:18.543Z,98.24
2018-06-16T02:59:18.498Z,98.24
2018-06-16T03:00:18.454Z,98.14
2018-06-16T03:01:18.412Z,98.43
2018-06-16T03:02:18.375Z,98.81
2018-06-16T03:03:18.401Z,98.52
2018-06-16T03:04:18.286Z,98.24
2018-06-16T03:05:18.245Z,98.43
2018-06-16T03:06:18.204Z,98.24
2018-06-16T03:07:18.160Z,98.33
2018-06-16T03:08:18.119Z,98.52
2018-06-16T03:09:18.076Z,98.81
2018-06-16T03:10:18.034Z,98.14
2018-06-16T03:11:17.991Z,98.90
2018-06-16T03:12:17.951Z,98.71
2018-06-16T03:13:17.908Z,98.43
2018-06-16T03:14:17.868Z,98.52
2018-06-16T03:15:17.826Z,98.33
2018-06-16T03:16:17.785Z,98.71
2018-06-16T03:17:17.740Z,98.71
2018-06-16T03:18:17.697Z,98.43
2018-06-16T03:19:17.665Z,98.52
2018-06-16T03:20:17.615Z,98.43
2018-06-16T03:21:17.574Z,98.52
2018-06-16T03:22:17.529Z,99.10
2018-06-16T03:23:17.490Z,99.00
2018-06-16T03:24:17.451Z,98.90
2018-06-16T03:25:17.403Z,99.10
2018-06-16T03:26:17.365Z,99.10
2018-06-16T03:27:17.319Z,99.76
2018-06-16T03:28:17.279Z,99.38
2018-06-16T03:29:17.235Z,99.29
2018-06-16T03:30:17.201Z,99.00
2018-06-16T03:31:17.157Z,99.19
2018-06-16T03:32:17.113Z,99.10
2018-06-16T03:33:17.068Z,99.00
2018-06-16T03:34:17.028Z,98.81
2018-06-16T03:35:16.987Z,99.48
2018-06-16T03:36:16.980Z,99.00
2018-06-16T03:37:16.901Z,99.29
2018-06-16T03:38:16.859Z,99.00
2018-06-16T03:39:16.815Z,98.81
2018-06-16T03:40:16.775Z,99.29
2018-06-16T03:41:16.730Z,99.00
2018-06-16T03:42:16.692Z,99.99
2018-06-16T03:43:16.647Z,99.57
2018-06-16T03:44:16.604Z,99.76
2018-06-16T03:45:16.564Z,99.76
2018-06-16T03:46:16.522Z,99.57
2018-06-16T03:47:16.477Z,99.48
2018-06-16T03:48:16.438Z,99.48
2018-06-16T03:49:16.394Z,99.57
2018-06-16T03:50:16.351Z,99.67
2018-06-16T03:51:16.308Z,99.96
2018-06-16T03:52:16.268Z,99.99
2018-06-16T03:53:16.225Z,99.96
2018-06-16T03:54:16.188Z,99.99
2018-06-16T03:55:16.141Z,99.99
2018-06-16T03:56:16.101Z,99.96
2018-06-16T03:57:16.057Z,99.99
2018-06-16T03:58:16.015Z,99.99
2018-06-16T03:59:15.972Z,99.99
2018-06-16T04:00:15.931Z,99.99
2018-06-16T04:01:15.888Z,99.99
2018-06-16T04:02:15.847Z,99.99
2018-06-16T04:03:15.804Z,99.99
2018-06-16T04:04:15.762Z,99.99
2018-06-16T04:05:15.719Z,99.99
2018-06-16T04:06:15.678Z,99.99
2018-06-16T04:07:15.638Z,99.99
2018-06-16T04:08:15.594Z,99.99
2018-06-16T04:09:15.555Z,99.99
2018-06-16T04:10:15.509Z,99.99
2018-06-16T04:11:15.471Z,99.99
2018-06-16T04:12:15.427Z,99.99
2018-06-16T04:13:15.385Z,99.99
2018-06-16T04:14:15.343Z,99.99
2018-06-16T04:15:15.299Z,99.99
2018-06-16T04:16:15.259Z,99.99
2018-06-16T04:17:15.216Z,99.99
2018-06-16T04:18:15.177Z,99.99
2018-06-16T04:19:15.132Z,99.99
2018-06-16T04:20:15.089Z,99.99
2018-06-16T04:21:15.046Z,99.99
2018-06-16T04:22:15.008Z,99.99
2018-06-16T04:23:14.964Z,99.99
2018-06-16T04:24:14.923Z,99.99
2018-06-16T04:25:14.885Z,99.99
2018-06-16T04:26:14.837Z,99.99
2018-06-16T04:27:14.797Z,99.99
2018-06-16T04:28:14.755Z,99.99
2018-06-16T04:29:14.711Z,99.99
2018-06-16T04:30:14.670Z,99.99
2018-06-16T04:31:14.628Z,99.99
2018-06-16T04:32:14.590Z,99.99
2018-06-16T04:33:14.560Z,99.99
2018-06-16T04:34:14.509Z,99.99
2018-06-16T04:35:14.463Z,99.99
2018-06-16T04:36:14.419Z,99.99
2018-06-16T04:37:14.382Z,99.99
2018-06-16T04:38:14.337Z,99.99
2018-06-16T04:39:14.296Z,99.99
2018-06-16T04:40:14.252Z,99.99
2018-06-16T04:41:14.215Z,99.99
2018-06-16T04:42:14.171Z,99.99
2018-06-16T04:43:14.128Z,99.99
2018-06-16T04:44:14.086Z,99.99
2018-06-16T04:45:14.045Z,99.99
2018-06-16T04:46:14.003Z,99.15
2018-06-16T04:47:13.960Z,99.05
2018-06-16T04:48:13.919Z,99.15
2018-06-16T04:49:13.880Z,98.28
2018-06-16T04:50:13.838Z,98.86
2018-06-16T04:51:13.799Z,98.86
2018-06-16T04:52:13.753Z,98.72
2018-06-16T04:53:13.711Z,97.95
2018-06-16T04:54:13.671Z,97.28
2018-06-16T04:55:13.630Z,96.80
2018-06-16T04:56:13.590Z,96.89
2018-06-16T04:57:13.556Z,97.09
2018-06-16T04:58:13.506Z,97.09
2018-06-16T04:59:13.465Z,97.18
2018-06-16T05:00:13.425Z,97.28
2018-06-16T05:01:13.390Z,96.94
2018-06-16T05:02:13.339Z,97.09
2018-06-16T05:03:13.299Z,97.14
2018-06-16T05:04:13.263Z,97.42
2018-06-16T05:05:13.217Z,97.33
2018-06-16T05:06:13.179Z,96.47
2018-06-16T05:07:13.141Z,95.79
2018-06-16T05:08:13.098Z,96.37
2018-06-16T05:09:13.052Z,96.47
2018-06-16T05:10:13.012Z,96.75
2018-06-16T05:11:12.970Z,96.47
2018-06-16T05:12:12.931Z,96.47
2018-06-16T05:13:12.887Z,96.27
2018-06-16T05:14:12.847Z,96.13
2018-06-16T05:15:12.805Z,96.32
2018-06-16T05:16:12.765Z,95.94
2018-06-16T05:17:12.725Z,95.84
2018-06-16T05:18:12.682Z,95.36
2018-06-16T05:19:12.641Z,95.07
2018-06-16T05:20:12.603Z,95.07
2018-06-16T05:21:12.560Z,95.17
2018-06-16T05:22:12.518Z,95.26
2018-06-16T05:23:12.479Z,95.36
2018-06-16T05:24:12.447Z,95.75
2018-06-16T05:25:12.394Z,94.59
2018-06-16T05:26:12.355Z,94.02
2018-06-16T05:27:12.313Z,93.73
2018-06-16T05:28:12.276Z,93.15
2018-06-16T05:29:12.233Z,93.44
2018-06-16T05:30:12.201Z,94.54
2018-06-16T05:31:12.152Z,94.26
2018-06-16T05:32:12.118Z,93.77
2018-06-16T05:33:12.068Z,93.77
2018-06-16T05:34:12.031Z,93.39
2018-06-16T05:35:11.987Z,93.39
2018-06-16T05:36:11.946Z,93.01
2018-06-16T05:37:11.907Z,92.91
2018-06-16T05:38:11.869Z,92.82
2018-06-16T05:39:11.827Z,92.82
2018-06-16T05:40:11.788Z,92.43
2018-06-16T05:41:11.744Z,92.63
2018-06-16T05:42:11.704Z,92.63
2018-06-16T05:43:11.664Z,91.47
2018-06-16T05:44:11.624Z,91.38
2018-06-16T05:45:11.578Z,90.70
2018-06-16T05:46:11.542Z,90.84
2018-06-16T05:47:11.502Z,90.84
2018-06-16T05:48:11.460Z,90.52
2018-06-16T05:49:11.416Z,90.37
2018-06-16T05:50:11.376Z,90.84
2018-06-16T05:51:11.337Z,90.75
2018-06-16T05:52:11.296Z,90.46
2018-06-16T05:53:11.260Z,90.56
2018-06-16T05:54:11.213Z,90.66
2018-06-16T05:55:11.177Z,90.84
2018-06-16T05:56:11.132Z,91.23
2018-06-16T05:57:11.092Z,90.75
2018-06-16T05:58:11.052Z,90.56
2018-06-16T05:59:11.013Z,90.56
2018-06-16T06:00:10.972Z,90.75
2018-06-16T06:01:10.930Z,89.98
2018-06-16T06:02:10.891Z,89.60
2018-06-16T06:03:10.855Z,89.54
2018-06-16T06:04:10.813Z,89.83
2018-06-16T06:05:10.768Z,89.16
2018-06-16T06:06:10.729Z,89.07
2018-06-16T06:07:10.689Z,89.83
2018-06-16T06:08:10.646Z,89.16
2018-06-16T06:09:10.608Z,89.07
2018-06-16T06:10:10.569Z,89.16
2018-06-16T06:11:10.527Z,88.78
2018-06-16T06:12:10.488Z,87.92
2018-06-16T06:13:10.449Z,88.49
2018-06-16T06:14:10.407Z,87.92
2018-06-16T06:15:10.364Z,88.10
2018-06-16T06:16:10.326Z,87.86
2018-06-16T06:17:10.287Z,88.34
2018-06-16T06:18:10.252Z,88.06
2018-06-16T06:19:10.204Z,87.96
2018-06-16T06:20:10.165Z,88.34
2018-06-16T06:21:10.125Z,88.44
2018-06-16T06:22:10.086Z,88.06
2018-06-16T06:23:10.044Z,87.48
2018-06-16T06:24:10.005Z,87.38
2018-06-16T06:25:09.967Z,86.61
2018-06-16T06:26:09.922Z,86.32
2018-06-16T06:27:09.883Z,86.27
2018-06-16T06:28:09.844Z,86.08
2018-06-16T06:29:09.803Z,86.46
2018-06-16T06:30:09.764Z,86.46
2018-06-16T06:31:09.733Z,86.27
2018-06-16T06:32:09.740Z,86.65
2018-06-16T06:33:09.643Z,86.65
2018-06-16T06:34:09.609Z,86.18
2018-06-16T06:35:09.565Z,85.21
2018-06-16T06:36:09.527Z,84.44
2018-06-16T06:37:09.541Z,84.06
2018-06-16T06:38:09.445Z,84.67
2018-06-16T06:39:09.404Z,84.87
2018-06-16T06:40:09.366Z,84.58
2018-06-16T06:41:09.326Z,83.91
2018-06-16T06:42:09.285Z,84.58
2018-06-16T06:43:09.245Z,83.33
2018-06-16T06:44:09.208Z,82.94
2018-06-16T06:45:09.172Z,83.52
2018-06-16T06:46:09.126Z,83.14
2018-06-16T06:47:09.087Z,82.56
2018-06-16T06:48:09.047Z,83.04
2018-06-16T06:49:09.007Z,81.25
2018-06-16T06:50:08.967Z,81.54
2018-06-16T06:51:08.930Z,80.68
2018-06-16T06:52:08.891Z,80.58
2018-06-16T06:53:08.847Z,80.87
2018-06-16T06:54:08.808Z,80.19
2018-06-16T06:55:08.774Z,79.61
2018-06-16T06:56:08.734Z,80.29
2018-06-16T06:57:08.692Z,81.48
2018-06-16T06:58:08.654Z,81.39
2018-06-16T06:59:08.613Z,81.29
2018-06-16T07:00:08.572Z,81.39
2018-06-16T07:01:08.533Z,80.33
2018-06-16T07:02:08.494Z,79.66
2018-06-16T07:03:08.457Z,80.33
2018-06-16T07:04:08.416Z,80.04
2018-06-16T07:05:08.377Z,78.88
2018-06-16T07:06:08.342Z,79.50
2018-06-16T07:07:08.299Z,78.92
2018-06-16T07:08:08.262Z,78.34
2018-06-16T07:09:08.221Z,78.34
2018-06-16T07:10:08.182Z,78.15
2018-06-16T07:11:08.145Z,78.06
2018-06-16T07:12:08.104Z,77.86
2018-06-16T07:13:08.066Z,77.67
2018-06-16T07:14:08.024Z,77.81
2018-06-16T07:15:07.993Z,77.61
2018-06-16T07:16:07.949Z,77.81
2018-06-16T07:17:07.914Z,78.09
2018-06-16T07:18:07.874Z,76.45
2018-06-16T07:19:07.833Z,77.03
2018-06-16T07:20:07.791Z,77.23
2018-06-16T07:21:07.751Z,78.09
2018-06-16T07:22:07.722Z,78.71
2018-06-16T07:23:07.694Z,77.84
2018-06-16T07:24:07.642Z,76.50
2018-06-16T07:25:07.597Z,76.50
2018-06-16T07:26:07.558Z,75.82
2018-06-16T07:27:07.544Z,75.24
2018-06-16T07:28:07.484Z,75.92
2018-06-16T07:29:07.442Z,75.34
2018-06-16T07:30:07.405Z,74.37
2018-06-16T07:31:07.366Z,74.37
2018-06-16T07:32:07.327Z,74.47
2018-06-16T07:33:07.290Z,74.37
2018-06-16T07:34:07.252Z,75.27
2018-06-16T07:35:07.211Z,75.47
2018-06-16T07:36:07.239Z,75.57
2018-06-16T07:37:07.135Z,72.86
2018-06-16T07:38:07.097Z,73.25
2018-06-16T07:39:07.059Z,74.69
2018-06-16T07:40:07.021Z,74.02
2018-06-16T07:41:06.981Z,72.77
2018-06-16T07:42:06.942Z,72.86
2018-06-16T07:43:06.908Z,71.90
2018-06-16T07:44:06.866Z,71.90
2018-06-16T07:45:06.831Z,71.90
2018-06-16T07:46:06.790Z,71.26
2018-06-16T07:47:06.756Z,71.55
2018-06-16T07:48:06.715Z,71.06
2018-06-16T07:49:06.683Z,70.48
2018-06-16T07:50:06.637Z,71.16
2018-06-16T07:51:06.606Z,71.74
2018-06-16T07:52:06.563Z,71.74
2018-06-16T07:53:06.523Z,71.74
2018-06-16T07:54:06.485Z,71.55
2018-06-16T07:55:06.450Z,71.55
2018-06-16T07:56:06.413Z,71.74
2018-06-16T07:57:06.370Z,72.52
2018-06-16T07:58:06.334Z,72.80
2018-06-16T07:59:06.294Z,72.71
2018-06-16T08:00:06.256Z,73.19
2018-06-16T08:01:06.217Z,72.71
2018-06-16T08:02:06.179Z,72.80
2018-06-16T08:03:06.145Z,72.71
2018-06-16T08:04:06.110Z,72.74
2018-06-16T08:05:06.064Z,71.55
2018-06-16T08:06:06.027Z,72.06
2018-06-16T08:07:05.989Z,71.94
2018-06-16T08:08:05.951Z,72.55
2018-06-16T08:09:05.912Z,71.39
2018-06-16T08:10:05.894Z,70.52
2018-06-16T08:11:05.844Z,70.14
2018-06-16T08:12:05.802Z,70.23
2018-06-16T08:13:05.760Z,70.14
2018-06-16T08:14:05.724Z,70.42
2018-06-16T08:15:05.686Z,69.74
2018-06-16T08:16:05.650Z,69.36
2018-06-16T08:17:05.609Z,70.14
2018-06-16T08:18:05.630Z,69.94
2018-06-16T08:19:05.535Z,70.14
2018-06-16T08:20:05.495Z,70.72
2018-06-16T08:21:05.459Z,70.32
2018-06-16T08:22:05.422Z,70.90
2018-06-16T08:23:05.381Z,70.72
2018-06-16T08:24:05.344Z,71.48
2018-06-16T08:25:05.307Z,71.88
2018-06-16T08:26:05.269Z,70.62
2018-06-16T08:27:05.235Z,70.14
2018-06-16T08:28:05.191Z,71.68
2018-06-16T08:29:05.153Z,70.52
2018-06-16T08:30:05.115Z,71.48
2018-06-16T08:31:05.078Z,70.32
2018-06-16T08:32:05.041Z,69.84
2018-06-16T08:33:05.013Z,69.36
2018-06-16T08:34:04.964Z,70.14
2018-06-16T08:35:04.929Z,70.32
2018-06-16T08:36:04.888Z,69.26
2018-06-16T08:37:04.852Z,70.81
2018-06-16T08:38:04.816Z,71.97
2018-06-16T08:39:04.776Z,71.68
2018-06-16T08:40:04.745Z,71.68
2018-06-16T08:41:04.699Z,71.10
2018-06-16T08:42:04.666Z,71.30
2018-06-16T08:43:04.637Z,71.30
2018-06-16T08:44:04.627Z,70.65
2018-06-16T08:45:04.551Z,71.04
2018-06-16T08:46:04.512Z,70.65
2018-06-16T08:47:04.472Z,71.33
2018-06-16T08:48:04.440Z,71.52
2018-06-16T08:49:04.401Z,71.91
2018-06-16T08:50:04.364Z,70.94
2018-06-16T08:51:04.322Z,71.14
2018-06-16T08:52:04.284Z,70.65
2018-06-16T08:53:04.247Z,70.84
2018-06-16T08:54:04.211Z,71.08
2018-06-16T08:55:04.169Z,70.59
2018-06-16T08:56:04.130Z,70.88
2018-06-16T08:57:04.094Z,71.56
2018-06-16T08:58:04.062Z,71.08
2018-06-16T08:59:04.021Z,69.95
2018-06-16T09:00:03.983Z,70.24
2018-06-16T09:01:03.946Z,69.17
2018-06-16T09:02:03.905Z,68.98
2018-06-16T09:03:03.869Z,70.62
2018-06-16T09:04:03.836Z,69.50
2018-06-16T09:05:03.793Z,68.24
2018-06-16T09:06:03.761Z,66.88
2018-06-16T09:07:03.724Z,67.37
2018-06-16T09:08:03.742Z,66.98
2018-06-16T09:09:03.649Z,67.37
2018-06-16T09:10:03.607Z,68.18
2018-06-16T09:11:03.572Z,67.21
2018-06-16T09:12:03.535Z,65.75
2018-06-16T09:13:03.496Z,65.56
2018-06-16T09:14:03.464Z,66.92
2018-06-16T09:15:03.427Z,66.92
2018-06-16T09:16:03.386Z,66.14
2018-06-16T09:17:03.347Z,65.27
2018-06-16T09:18:03.309Z,64.11
2018-06-16T09:19:03.275Z,64.50
2018-06-16T09:20:03.237Z,63.62
2018-06-16T09:21:03.197Z,63.24
2018-06-16T09:22:03.162Z,65.11
2018-06-16T09:23:03.125Z,63.85
2018-06-16T09:24:03.100Z,63.17
2018-06-16T09:25:03.052Z,63.37
2018-06-16T09:26:03.017Z,63.85
2018-06-16T09:27:02.978Z,64.82
2018-06-16T09:28:02.966Z,65.69
2018-06-16T09:29:02.903Z,64.72
2018-06-16T09:30:02.868Z,63.07
2018-06-16T09:31:02.831Z,61.82
2018-06-16T09:32:02.792Z,61.62
2018-06-16T09:33:02.758Z,61.75
2018-06-16T09:34:02.721Z,61.46
2018-06-16T09:35:02.687Z,60.94
2018-06-16T09:36:02.647Z,60.78
2018-06-16T09:37:02.626Z,60.78
2018-06-16T09:38:02.576Z,59.61
2018-06-16T09:39:02.541Z,60.97
2018-06-16T09:40:02.501Z,62.33
2018-06-16T09:41:02.461Z,60.20
2018-06-16T09:42:02.445Z,59.91
2018-06-16T09:43:02.392Z,59.81
2018-06-16T09:44:02.357Z,60.03
2018-06-16T09:45:02.317Z,60.61
2018-06-16T09:46:02.294Z,60.61
2018-06-16T09:47:02.246Z,59.55
2018-06-16T09:48:02.212Z,59.55
2018-06-16T09:49:02.173Z,59.94
2018-06-16T09:50:02.141Z,61.13
2018-06-16T09:51:02.098Z,59.58
2018-06-16T09:52:02.062Z,59.58
2018-06-16T09:53:02.024Z,59.38
2018-06-16T09:54:01.988Z,58.31
2018-06-16T09:55:01.956Z,59.38
2018-06-16T09:56:01.918Z,59.38
2018-06-16T09:57:01.882Z,60.74
2018-06-16T09:58:01.848Z,59.67
2018-06-16T09:59:01.812Z,58.03
2018-06-16T10:00:01.771Z,56.76
2018-06-16T10:01:01.737Z,57.34
2018-06-16T10:02:01.700Z,57.57
2018-06-16T10:03:01.668Z,58.34
2018-06-16T10:04:01.628Z,58.54
2018-06-16T10:05:01.589Z,56.11
2018-06-16T10:06:01.556Z,56.21
2018-06-16T10:07:01.536Z,56.21
2018-06-16T10:08:01.491Z,56.24
2018-06-16T10:09:01.454Z,55.27
2018-06-16T10:10:01.411Z,55.27
2018-06-16T10:11:01.380Z,54.10
2018-06-16T10:12:01.340Z,53.35
2018-06-16T10:13:01.305Z,52.57
2018-06-16T10:14:01.278Z,52.28
2018-06-16T10:15:01.240Z,52.28
2018-06-16T10:16:01.228Z,51.50
2018-06-16T10:17:01.198Z,51.31
2018-06-16T10:18:01.178Z,51.79
2018-06-16T10:19:01.094Z,51.60
2018-06-16T10:20:01.055Z,52.19
2018-06-16T10:21:01.018Z,52.28
2018-06-16T10:22:00.988Z,52.28
2018-06-16T10:23:00.948Z,51.11
2018-06-16T10:24:00.914Z,52.47
2018-06-16T10:25:00.876Z,52.47
2018-06-16T10:26:00.840Z,51.82
2018-06-16T10:27:00.805Z,51.62
2018-06-16T10:28:00.769Z,51.53
2018-06-16T10:29:00.746Z,51.33
2018-06-16T10:30:00.701Z,52.50
2018-06-16T10:31:00.665Z,52.31
2018-06-16T10:32:00.627Z,52.59
2018-06-16T10:33:00.591Z,52.21
2018-06-16T10:34:00.558Z,51.53
2018-06-16T10:35:00.521Z,52.47
2018-06-16T10:36:00.492Z,53.74
2018-06-16T10:37:00.450Z,54.42
2018-06-16T10:38:00.415Z,52.96
2018-06-16T10:39:00.382Z,52.76
2018-06-16T10:40:00.344Z,53.45
2018-06-16T10:41:00.308Z,51.50
2018-06-16T10:42:00.276Z,51.01
2018-06-16T10:43:00.238Z,51.72
2018-06-16T10:44:00.202Z,52.47
2018-06-16T10:45:00.168Z,54.03
2018-06-16T10:46:00.140Z,53.45
2018-06-16T10:47:00.098Z,53.45
2018-06-16T10:48:00.065Z,53.45
2018-06-16T10:49:00.026Z,53.47
2018-06-16T10:49:59.992Z,51.62
2018-06-16T10:50:59.957Z,51.53
2018-06-16T10:51:59.919Z,51.43
2018-06-16T10:52:59.884Z,51.53
2018-06-16T10:53:59.854Z,51.92
2018-06-16T10:54:59.814Z,50.56
2018-06-16T10:55:59.778Z,50.36
2018-06-16T10:56:59.745Z,49.56
2018-06-16T10:57:59.705Z,50.82
2018-06-16T10:58:59.672Z,51.40
2018-06-16T10:59:59.637Z,50.82
2018-06-16T11:00:59.601Z,49.46
2018-06-16T11:01:59.566Z,48.68
2018-06-16T11:02:59.528Z,49.46
2018-06-16T11:03:59.495Z,49.95
2018-06-16T11:04:59.458Z,51.50
2018-06-16T11:05:59.423Z,49.44
2018-06-16T11:06:59.396Z,50.41
2018-06-16T11:07:59.352Z,50.21
2018-06-16T11:08:59.317Z,51.67
2018-06-16T11:09:59.281Z,50.80
2018-06-16T11:10:59.245Z,51.18
2018-06-16T11:11:59.218Z,51.09
2018-06-16T11:12:59.173Z,51.97
2018-06-16T11:13:59.139Z,51.87
2018-06-16T11:14:59.103Z,52.15
2018-06-16T11:15:59.068Z,53.71
2018-06-16T11:16:59.033Z,51.48
2018-06-16T11:17:58.995Z,51.57
2018-06-16T11:19:58.925Z,51.18
2018-06-16T11:20:58.888Z,50.80
2018-06-16T11:21:58.851Z,50.87
2018-06-16T11:22:58.817Z,51.06
2018-06-16T11:23:58.783Z,50.96
2018-06-16T11:24:58.746Z,50.58
2018-06-16T11:25:58.709Z,51.16
2018-06-16T11:26:58.674Z,51.55
2018-06-16T11:27:58.638Z,52.42
2018-06-16T11:28:58.621Z,52.30
2018-06-16T11:29:58.566Z,51.91
2018-06-16T11:30:58.529Z,52.69
2018-06-16T11:31:58.493Z,53.56
2018-06-16T11:32:58.456Z,52.30
2018-06-16T11:33:58.420Z,52.50
2018-06-16T11:34:58.384Z,54.02
2018-06-16T11:35:58.351Z,51.89
2018-06-16T11:36:58.311Z,52.28
2018-06-16T11:37:58.277Z,52.47
2018-06-16T11:38:58.239Z,51.86
2018-06-16T11:39:58.203Z,52.15
2018-06-16T11:40:58.221Z,51.86
2018-06-16T11:41:58.138Z,51.47
2018-06-16T11:42:58.096Z,52.83
2018-06-16T11:43:58.063Z,53.99
2018-06-16T11:44:58.020Z,53.31
2018-06-16T11:45:57.988Z,53.31
2018-06-16T11:46:57.976Z,52.34
2018-06-16T11:47:57.919Z,53.15
2018-06-16T11:48:57.876Z,52.37
2018-06-16T11:49:57.839Z,51.98
2018-06-16T11:50:57.801Z,53.15
2018-06-16T11:51:57.767Z,52.37
2018-06-16T11:52:57.737Z,52.37
2018-06-16T11:53:57.693Z,53.24
2018-06-16T11:54:57.654Z,53.31
2018-06-16T11:55:57.622Z,52.64
2018-06-16T11:56:57.584Z,52.15
2018-06-16T11:57:57.552Z,53.51
2018-06-16T11:58:57.517Z,53.51
2018-06-16T11:59:57.482Z,52.64
2018-06-16T12:00:57.440Z,52.80
2018-06-16T12:01:57.446Z,55.81
2018-06-16T12:02:57.368Z,57.36
2018-06-16T12:03:57.330Z,57.94
2018-06-16T12:04:57.336Z,58.14
2018-06-16T12:05:57.264Z,56.20
2018-06-16T12:06:57.220Z,56.07
2018-06-16T12:07:57.184Z,56.65
2018-06-16T12:08:57.143Z,57.33
2018-06-16T12:09:57.108Z,57.91
2018-06-16T12:10:57.074Z,57.04
2018-06-16T12:11:57.034Z,56.75
2018-06-16T12:12:56.999Z,56.16
2018-06-16T12:13:56.963Z,55.78
2018-06-16T12:14:56.921Z,56.62
2018-06-16T12:15:56.894Z,55.36
2018-06-16T12:16:56.849Z,55.17
2018-06-16T12:17:56.809Z,54.88
2018-06-16T12:18:56.784Z,55.46
2018-06-16T12:19:56.744Z,54.88
2018-06-16T12:20:56.703Z,56.04
2018-06-16T12:21:56.665Z,55.94
2018-06-16T12:22:56.628Z,55.56
2018-06-16T12:23:56.586Z,55.07
2018-06-16T12:24:56.548Z,54.49
2018-06-16T12:25:56.513Z,54.13
2018-06-16T12:26:56.476Z,54.71
2018-06-16T12:27:56.440Z,54.03
2018-06-16T12:28:56.401Z,54.48
2018-06-16T12:29:56.372Z,53.41
2018-06-16T12:30:56.331Z,53.12
2018-06-16T12:31:56.291Z,52.44
2018-06-16T12:32:56.252Z,52.93
2018-06-16T12:33:56.215Z,53.97
2018-06-16T12:34:56.179Z,54.64
2018-06-16T12:35:56.143Z,55.32
2018-06-16T12:36:56.112Z,55.62
2018-06-16T12:37:56.071Z,56.00
2018-06-16T12:38:56.035Z,55.90
2018-06-16T12:39:55.995Z,56.39
2018-06-16T12:40:55.959Z,55.71
2018-06-16T12:41:55.919Z,57.55
2018-06-16T12:42:55.884Z,57.07
2018-06-16T12:43:55.858Z,55.32
2018-06-16T12:44:55.812Z,54.94
2018-06-16T12:45:55.780Z,53.58
2018-06-16T12:46:55.745Z,55.22
2018-06-16T12:47:55.753Z,57.55
2018-06-16T12:48:55.663Z,58.23
2018-06-16T12:49:55.634Z,56.97
2018-06-16T12:50:55.684Z,57.29
2018-06-16T12:51:55.552Z,56.20
2018-06-16T12:52:55.516Z,55.13
2018-06-16T12:53:55.478Z,54.48
2018-06-16T12:54:55.498Z,55.44